Time;durP1;ratioP1;P1;durP2;ratioP2;P2;SDS_P1;SDS_P2;PMS_P1;PMS_P2;Temp;Humidity;BMP_temperature;BMP_pressure;BME280_temperature;BME280_humidity;BME280_pressure;Samples;Min_cycle;Max_cycle;Signal;HPM_P1;HPM_P2
2022/06/27 00:00:46;;;;;;;;;;;20.40;99.90;;;;;;4983375;28;19920;-80
2022/06/27 00:03:12;;;;;;;;;;;;;;;;;;4979707;28;19910;-80
2022/06/27 00:05:38;;;;;;;;;;;;;;;;;;4984423;28;19910;-79
2022/06/27 00:08:04;;;;;;;;;;;20.10;99.90;;;;;;4988114;28;20606;-78
2022/06/27 00:10:29;;;;;;;;;;;;;;;;;;4985400;28;19918;-79
2022/06/27 00:12:55;;;;;;;;;;;;;;;;;;4982907;28;20267;-80
2022/06/27 00:15:21;;;;;;;;;;;;;;;;;;4982225;28;19919;-80
2022/06/27 00:17:47;;;;;;;;;;;20.30;99.90;;;;;;4977514;28;19918;-78
2022/06/27 00:20:12;;;;;;;;;;;19.10;99.90;;;;;;4979090;28;19920;-81
2022/06/27 00:22:38;;;;;;;;;;;20.30;99.90;;;;;;4983557;28;19913;-81
2022/06/27 00:25:04;;;;;;;;;;;;;;;;;;4979721;28;19909;-80
2022/06/27 00:27:29;;;;;;;;;;;;;;;;;;4986197;28;19914;-78
2022/06/27 00:29:55;;;;;;;;;;;19.20;99.90;;;;;;4981511;28;19918;-80
2022/06/27 00:32:23;;;;;;;;;;;19.30;99.90;;;;;;4979663;28;19918;-80
2022/06/27 00:34:48;;;;;;;;;;;;;;;;;;4983089;28;20337;-80
2022/06/27 00:37:14;;;;;;;;;;;20.30;99.90;;;;;;4986941;28;19917;-79
2022/06/27 00:39:39;;;;;;;;;;;20.40;99.90;;;;;;4982627;28;20017;-79
2022/06/27 00:42:05;;;;;;;;;;;;;;;;;;4985322;28;19925;-79
2022/06/27 00:44:35;;;;;;;;;;;19.30;99.90;;;;;;4979454;28;19925;-79
2022/06/27 00:47:01;;;;;;;;;;;19.90;99.90;;;;;;4983572;28;19929;-81
2022/06/27 00:49:27;;;;;;;;;;;20.30;99.90;;;;;;4983017;28;19925;-80
2022/06/27 00:51:52;;;;;;;;;;;20.50;99.90;;;;;;4983938;28;20309;-80
2022/06/27 00:54:18;;;;;;;;;;;;;;;;;;4980224;28;19968;-79
2022/06/27 00:56:44;;;;;;;;;;;;;;;;;;4981385;28;19956;-79
2022/06/27 00:59:10;;;;;;;;;;;20.60;99.90;;;;;;4980251;28;19989;-79
2022/06/27 01:01:35;;;;;;;;;;;;;;;;;;4977690;28;20428;-79
2022/06/27 01:04:01;;;;;;;;;;;;;;;;;;4988938;28;19918;-80
2022/06/27 01:06:27;;;;;;;;;;;;;;;;;;4977501;28;20348;-80
2022/06/27 01:08:53;;;;;;;;;;;20.70;99.90;;;;;;4978064;28;19972;-79
2022/06/27 01:11:19;;;;;;;;;;;;;;;;;;4999510;28;19909;-78
2022/06/27 01:13:44;;;;;;;;;;;20.50;99.90;;;;;;4997868;28;19922;-77
2022/06/27 01:16:10;;;;;;;;;;;20.50;99.90;;;;;;4995426;28;19925;-77
2022/06/27 01:18:35;;;;;;;;;;;;;;;;;;4988366;28;19914;-81
2022/06/27 01:21:01;;;;;;;;;;;;;;;;;;4979263;28;20345;-79
2022/06/27 01:23:27;;;;;;;;;;;20.50;99.90;;;;;;4976367;28;19921;-80
2022/06/27 01:25:54;;;;;;;;;;;20.10;99.90;;;;;;4982665;28;19909;-80
2022/06/27 01:28:20;;;;;;;;;;;;;;;;;;4981430;28;20016;-80
2022/06/27 01:30:45;;;;;;;;;;;19.10;99.90;;;;;;4976823;28;20005;-78
2022/06/27 01:33:11;;;;;;;;;;;20.30;99.90;;;;;;4987786;28;19920;-78
2022/06/27 01:35:36;;;;;;;;;;;;;;;;;;4982541;28;19916;-80
2022/06/27 01:38:02;;;;;;;;;;;;;;;;;;4978579;28;19910;-81
2022/06/27 01:40:28;;;;;;;;;;;19.10;99.90;;;;;;4980881;28;20290;-82
2022/06/27 01:42:54;;;;;;;;;;;;;;;;;;4975408;28;19914;-81
2022/06/27 01:45:19;;;;;;;;;;;;;;;;;;4977110;28;20046;-81
2022/06/27 01:47:45;;;;;;;;;;;;;;;;;;4979629;28;20366;-80
2022/06/27 01:50:11;;;;;;;;;;;;;;;;;;4976737;28;19968;-80
2022/06/27 01:52:37;;;;;;;;;;;18.50;99.90;;;;;;4984295;28;19913;-81
2022/06/27 01:55:03;;;;;;;;;;;;;;;;;;4983310;28;19976;-81
2022/06/27 01:57:29;;;;;;;;;;;;;;;;;;4979547;28;19917;-80
2022/06/27 01:59:55;;;;;;;;;;;;;;;;;;4971775;28;20032;-79
2022/06/27 02:02:21;;;;;;;;;;;;;;;;;;4977010;28;20000;-80
2022/06/27 02:04:47;;;;;;;;;;;;;;;;;;4982345;28;19977;-81
2022/06/27 02:07:13;;;;;;;;;;;18.60;99.90;;;;;;4987375;28;19910;-82
2022/06/27 02:09:38;;;;;;;;;;;18.70;99.90;;;;;;4984613;28;20092;-82
2022/06/27 02:12:19;;;;;;;;;;;19.70;99.90;;;;;;4982927;28;19914;-82
2022/06/27 02:14:45;;;;;;;;;;;;;;;;;;4988667;28;20417;-82
2022/06/27 02:17:10;;;;;;;;;;;18.60;99.90;;;;;;4979186;28;19956;-81
2022/06/27 02:19:37;;;;;;;;;;;;;;;;;;4984934;28;20077;-81
2022/06/27 02:22:03;;;;;;;;;;;;;;;;;;4984466;28;19918;-82
2022/06/27 02:24:28;;;;;;;;;;;;;;;;;;4985119;28;20044;-81
2022/06/27 02:26:54;;;;;;;;;;;;;;;;;;4982240;28;19933;-84
2022/06/27 02:29:20;;;;;;;;;;;;;;;;;;4985329;28;19922;-82
2022/06/27 02:31:46;;;;;;;;;;;;;;;;;;4985119;28;19925;-83
2022/06/27 02:34:12;;;;;;;;;;;;;;;;;;4986155;28;19922;-82
2022/06/27 02:36:41;;;;;;;;;;;;;;;;;;4983127;28;19917;-82
2022/06/27 02:39:07;;;;;;;;;;;18.10;99.90;;;;;;4991206;28;20008;-81
2022/06/27 02:41:33;;;;;;;;;;;19.20;99.90;;;;;;4980629;28;19956;-81
2022/06/27 02:44:00;;;;;;;;;;;;;;;;;;4983506;28;19917;-79
2022/06/27 02:46:26;;;;;;;;;;;;;;;;;;4981136;28;20386;-79
2022/06/27 02:48:52;;;;;;;;;;;;;;;;;;4986199;28;20378;-81
2022/06/27 02:51:18;;;;;;;;;;;;;;;;;;4977346;28;19929;-80
2022/06/27 02:53:44;;;;;;;;;;;;;;;;;;4980271;28;21550;-79
2022/06/27 02:56:10;;;;;;;;;;;;;;;;;;4981017;28;19918;-80
2022/06/27 02:58:47;;;;;;;;;;;18.30;99.90;;;;;;4982128;28;21151;-80
2022/06/27 03:01:13;;;;;;;;;;;;;;;;;;4977242;28;19910;-80
2022/06/27 03:03:39;;;;;;;;;;;;;;;;;;4982106;28;19976;-79
2022/06/27 03:06:06;;;;;;;;;;;;;;;;;;4980787;28;19917;-79
2022/06/27 03:08:36;;;;;;;;;;;18.50;99.90;;;;;;4982523;28;20297;-81
2022/06/27 03:11:01;;;;;;;;;;;;;;;;;;4988941;28;19968;-79
2022/06/27 03:13:27;;;;;;;;;;;;;;;;;;4979127;28;19960;-81
2022/06/27 03:15:53;;;;;;;;;;;;;;;;;;4984789;28;20796;-80
2022/06/27 03:18:19;;;;;;;;;;;18.00;99.90;;;;;;4981520;28;19910;-80
2022/06/27 03:20:44;;;;;;;;;;;;;;;;;;4980605;28;19910;-79
2022/06/27 03:23:10;;;;;;;;;;;17.90;99.90;;;;;;4977980;28;19949;-81
2022/06/27 03:25:36;;;;;;;;;;;;;;;;;;4982991;28;21717;-80
2022/06/27 03:28:02;;;;;;;;;;;;;;;;;;4987140;28;20519;-80
2022/06/27 03:30:28;;;;;;;;;;;;;;;;;;4977660;28;20382;-80
2022/06/27 03:32:53;;;;;;;;;;;17.80;99.90;;;;;;4988165;28;19913;-81
2022/06/27 03:35:19;;;;;;;;;;;;;;;;;;4982035;28;19941;-80
2022/06/27 03:37:45;;;;;;;;;;;;;;;;;;4983443;28;19924;-80
2022/06/27 03:40:10;;;;;;;;;;;18.00;99.90;;;;;;4976300;28;20601;-81
2022/06/27 03:42:36;;;;;;;;;;;17.90;99.90;;;;;;4986979;28;19918;-80
2022/06/27 03:45:02;;;;;;;;;;;17.90;99.90;;;;;;4976947;28;20359;-80
2022/06/27 03:47:27;;;;;;;;;;;;;;;;;;4978129;28;19976;-80
2022/06/27 03:50:02;;;;;;;1.17;0.70;;;;;;;;;;4981287;28;20547;-79
2022/06/27 03:52:29;;;;;;;1.58;0.75;;;;;;;;;;4981298;28;20034;-80
2022/06/27 03:54:55;;;;;;;2.47;1.08;;;;;;;;;;4979628;28;20042;-81
2022/06/27 03:57:21;;;;;;;2.55;0.90;;;;;;;;;;4979029;28;20637;-82
2022/06/27 03:59:47;;;;;;;0.88;0.57;;;;;;;;;;4986256;28;20038;-81
2022/06/27 04:02:16;;;;;;;1.55;0.90;;;;;;;;;;4975752;28;20482;-80
2022/06/27 04:04:41;;;;;;;1.58;1.13;;;;;;;;;;4979193;28;20026;-81
2022/06/27 04:07:07;;;;;;;1.95;1.30;;;;;;;;;;4982775;28;20036;-81
2022/06/27 04:09:33;;;;;;;1.55;0.95;;;;;;;;;;4973967;28;20066;-79
2022/06/27 04:12:00;;;;;;;4.32;0.80;;;;;;;;;;4976489;28;20022;-81
2022/06/27 04:14:26;;;;;;;2.38;1.13;;;;;;;;;;4978921;28;20044;-81
2022/06/27 04:16:52;;;;;;;3.83;1.10;;;;;;;;;;4983908;28;20023;-81
2022/06/27 04:19:18;;;;;;;1.17;0.70;;;;;;;;;;4986395;28;20035;-80
2022/06/27 04:21:44;;;;;;;1.05;0.60;;;;;;;;;;4975379;28;20022;-81
2022/06/27 04:24:10;;;;;;;0.82;0.60;;;;;;;;;;4986168;28;20027;-80
2022/06/27 04:26:36;;;;;;;2.22;0.80;;;;;;;;;;4980509;28;20032;-81
2022/06/27 04:29:02;;;;;;;1.58;0.98;;;;;;;;;;4977941;28;20519;-81
2022/06/27 04:31:28;;;;;;;0.95;0.60;;;;;;;;;;4982740;28;20031;-80
2022/06/27 04:33:54;;;;;;;1.08;0.70;;;;;;;;;;4985614;28;20467;-80
2022/06/27 04:36:21;;;;;;;3.00;0.73;;;;;;;;;;4974537;28;20041;-79
2022/06/27 04:38:47;;;;;;;1.77;0.80;;;;;;;;;;4981787;28;20030;-80
2022/06/27 04:41:13;;;;;;;1.60;0.70;;;;;;;;;;4979178;28;20491;-80
2022/06/27 04:43:39;;;;;;;1.90;1.08;;;;;;;;;;4980741;28;20034;-80
2022/06/27 04:46:05;;;;;;;2.35;0.60;;;;;;;;;;4975692;28;20402;-80
2022/06/27 04:48:32;;;;;;;1.20;0.65;;;;;;;;;;4978936;28;20037;-79
2022/06/27 04:50:59;;;;;;;1.15;0.60;;;;;;;;;;4981917;28;20049;-81
2022/06/27 04:53:25;;;;;;;1.63;0.75;;;;;;;;;;4986628;28;20034;-80
2022/06/27 04:55:52;;;;;;;3.40;0.85;;;;;;;;;;4986326;28;20096;-80
2022/06/27 04:58:18;;;;;;;1.58;1.23;;;;;;;;;;4983560;28;20035;-81
2022/06/27 05:00:46;;;;;;;1.63;0.80;;;;;;;;;;4987388;28;20375;-81
2022/06/27 05:03:12;;;;;;;1.52;0.77;;;;;;;;;;4984248;28;20089;-81
2022/06/27 05:05:38;;;;;;;1.35;0.80;;;;;;;;;;4987471;28;20053;-82
2022/06/27 05:08:05;;;;;;;1.42;0.50;;;;;;;;;;4984987;28;20038;-83
2022/06/27 05:10:31;;;;;;;1.58;0.68;;;;;;;;;;4984693;28;20528;-84
2022/06/27 05:12:57;;;;;;;1.00;0.50;;;;;;;;;;4986566;28;20066;-84
2022/06/27 05:15:22;;;;;;;1.75;0.70;;;;;;;;;;4983995;28;20026;-82
2022/06/27 05:17:48;;;;;;;2.92;0.50;;;;;;;;;;4985755;28;20791;-80
2022/06/27 05:20:16;;;;;;;5.50;1.20;;;;;;;;;;4971862;28;20030;-82
2022/06/27 05:22:42;;;;;;;1.05;0.75;;;;;;;;;;4986436;28;20030;-82
2022/06/27 05:25:09;;;;;;;1.50;0.60;;;;;;;;;;4983800;28;20539;-81
2022/06/27 05:27:35;;;;;;;1.67;0.68;;;;;;;;;;4983055;28;20506;-83
2022/06/27 05:30:05;;;;;;;0.68;0.40;;;19.30;99.90;;;;;;4988265;28;20038;-80
2022/06/27 05:32:31;;;;;;;1.48;0.45;;;;;;;;;;4989678;28;20041;-81
2022/06/27 05:34:57;;;;;;;2.50;1.23;;;;;;;;;;4982402;28;20034;-82
2022/06/27 05:37:23;;;;;;;1.15;0.45;;;;;;;;;;4994511;28;20053;-82
2022/06/27 05:39:49;;;;;;;0.75;0.65;;;;;;;;;;4988226;28;20026;-81
2022/06/27 05:42:18;;;;;;;2.38;0.43;;;18.70;99.90;;;;;;4988583;28;20101;-81
2022/06/27 05:44:44;;;;;;;5.10;0.90;;;;;;;;;;4985970;28;20031;-80
2022/06/27 05:47:10;;;;;;;0.50;0.38;;;;;;;;;;4982919;28;20109;-81
2022/06/27 05:49:39;;;;;;;1.25;0.63;;;;;;;;;;4979499;28;20046;-80
2022/06/27 05:52:05;;;;;;;2.33;0.60;;;;;;;;;;4985453;28;20042;-80
2022/06/27 05:54:31;;;;;;;1.15;0.57;;;19.60;99.90;;;;;;4993574;28;20026;-79
2022/06/27 05:56:58;;;;;;;2.70;0.82;;;19.90;99.90;;;;;;4991983;28;20030;-81
2022/06/27 05:59:24;;;;;;;;;;;;;;;;;;4993476;28;20034;-81
2022/06/27 06:01:51;;;;;;;;;;;20.50;99.90;;;;;;4992443;28;19918;-80
2022/06/27 06:04:17;;;;;;;;;;;;;;;;;;4989552;28;19975;-79
2022/06/27 06:06:43;;;;;;;;;;;20.70;99.90;;;;;;5001256;28;19910;-79
2022/06/27 06:09:10;;;;;;;;;;;20.90;99.90;;;;;;4995882;28;19975;-79
2022/06/27 06:11:36;;;;;;;;;;;20.90;99.90;;;;;;4992665;28;19914;-81
2022/06/27 06:14:02;;;;;;;;;;;21.00;99.90;;;;;;4991119;28;19916;-80
2022/06/27 06:16:29;;;;;;;;;;;20.80;99.90;;;;;;4999793;28;19909;-80
2022/06/27 06:18:57;;;;;;;;;;;20.20;99.90;;;;;;4982786;28;19934;-79
2022/06/27 06:21:22;;;;;;;;;;;;;;;;;;4999804;28;20654;-78
2022/06/27 06:23:49;;;;;;;;;;;20.70;99.90;;;;;;5016613;28;19925;-78
2022/06/27 06:26:16;;;;;;;1.00;0.75;;;;;;;;;;5007724;28;19914;-77
2022/06/27 06:28:48;;;;;;;0.88;0.45;;;21.40;99.90;;;;;;5011811;28;20035;-79
2022/06/27 06:31:21;;;;;;;0.77;0.30;;;;;;;;;;5007113;28;20038;-79
2022/06/27 06:33:47;;;;;;;0.40;0.30;;;;;;;;;;4989900;28;20042;-79
2022/06/27 06:36:13;;;;;;;0.43;0.17;;;;;;;;;;4998646;28;20066;-79
2022/06/27 06:38:39;;;;;;;0.60;0.30;;;;;;;;;;4989249;28;20027;-78
2022/06/27 06:41:05;;;;;;;1.52;0.43;;;;;;;;;;4992351;28;20656;-80
2022/06/27 06:43:31;;;;;;;0.45;0.32;;;;;;;;;;4988903;28;20188;-79
2022/06/27 06:45:58;;;;;;;1.85;0.30;;;20.20;99.90;;;;;;4989345;28;20765;-80
2022/06/27 06:48:24;;;;;;;2.00;0.43;;;;;;;;;;4995803;28;20027;-78
2022/06/27 06:50:50;;;;;;;3.03;0.20;;;;;;;;;;4998626;28;20031;-79
2022/06/27 06:53:16;;;;;;;0.88;0.30;;;;;;;;;;4997800;28;20034;-79
2022/06/27 06:55:42;;;;;;;1.00;0.55;;;;;;;;;;4995039;28;20023;-79
2022/06/27 06:58:09;;;;;;;0.60;0.15;;;;;;;;;;4991335;28;20034;-79
2022/06/27 07:00:35;;;;;;;5.10;0.88;;;;;;;;;;4988043;28;20041;-78
2022/06/27 07:03:01;;;;;;;2.05;0.70;;;;;;;;;;4997683;28;20038;-80
2022/06/27 07:05:29;;;;;;;1.25;0.45;;;20.70;99.90;;;;;;4989670;28;20023;-79
2022/06/27 07:07:56;;;;;;;5.63;0.40;;;;;;;;;;4997719;28;20038;-80
2022/06/27 07:10:22;;;;;;;0.20;0.20;;;;;;;;;;4992146;28;20046;-79
2022/06/27 07:12:49;;;;;;;0.63;0.20;;;;;;;;;;4985447;28;20487;-80
2022/06/27 07:15:15;;;;;;;1.13;0.40;;;;;;;;;;4990648;28;20038;-78
2022/06/27 07:17:46;;;;;;;2.55;0.25;;;20.30;99.90;;;;;;4983349;28;20036;-79
2022/06/27 07:20:13;;;;;;;1.65;0.22;;;20.40;99.90;;;;;;4991048;28;20073;-80
2022/06/27 07:22:40;;;;;;;2.15;0.30;;;;;;;;;;5000004;28;20048;-80
2022/06/27 07:25:06;;;;;;;1.70;0.22;;;;;;;;;;4991663;28;20030;-79
2022/06/27 07:27:34;;;;;;;0.85;0.30;;;20.10;99.90;;;;;;4995685;28;20118;-81
2022/06/27 07:30:00;;;;;;;0.57;0.28;;;;;;;;;;4991123;28;20034;-81
2022/06/27 07:32:27;;;;;;;0.95;0.20;;;;;;;;;;4997834;28;20046;-81
2022/06/27 07:34:54;;;;;;;1.00;0.35;;;;;;;;;;4983198;28;20042;-80
2022/06/27 07:37:20;;;;;;;3.75;1.23;;;;;;;;;;5003133;28;20407;-79
2022/06/27 07:39:46;;;;;;;5.80;1.38;;;;;;;;;;4990776;28;20057;-78
2022/06/27 07:42:12;;;;;;;;;;;22.70;99.90;;;;;;4994164;28;20018;-79
2022/06/27 07:44:38;;;;;;;;;;;23.80;99.90;;;;;;4991095;28;20574;-79
2022/06/27 07:47:04;;;;;;;;;;;23.50;99.90;;;;;;5003431;28;19925;-79
2022/06/27 07:49:30;;;;;;;;;;;;;;;;;;4990356;28;19917;-78
2022/06/27 07:51:56;;;;;;;;;;;23.50;99.90;;;;;;4974068;28;20005;-78
2022/06/27 07:54:22;;;;;;;;;;;24.10;99.90;;;;;;4986379;28;20000;-81
2022/06/27 07:56:50;;;;;;;;;;;23.20;99.90;;;;;;5001096;28;19909;-79
2022/06/27 07:59:17;;;;;;;;;;;24.50;99.90;;;;;;4991067;28;20150;-79
2022/06/27 08:01:43;;;;;;;;;;;23.20;99.90;;;;;;4986325;28;19909;-80
2022/06/27 08:04:11;;;;;;;;;;;23.20;99.90;;;;;;4987079;28;19918;-80
2022/06/27 08:06:36;;;;;;;;;;;;;;;;;;4991661;28;19956;-79
2022/06/27 08:09:06;;;;;;;;;;;22.70;99.90;;;;;;4987980;28;19941;-79
2022/06/27 08:11:32;;;;;;;;;;;;;;;;;;4996704;28;19922;-80
2022/06/27 08:14:03;;;;;;;;;;;22.70;99.90;;;;;;5001535;28;19916;-80
2022/06/27 08:16:29;;;;;;;;;;;23.70;99.90;;;;;;4997502;28;20389;-78
2022/06/27 08:18:55;;;;;;;;;;;22.50;99.90;;;;;;4990300;28;20056;-77
2022/06/27 08:21:25;;;;;;;;;;;22.60;99.90;;;;;;4994953;28;20730;-79
2022/06/27 08:23:56;;;;;;;;;;;23.50;99.90;;;;;;4999736;28;20100;-79
2022/06/27 08:26:23;;;;;;;;;;;22.70;99.90;;;;;;4990453;28;19925;-79
2022/06/27 08:28:49;;;;;;;;;;;22.40;99.90;;;;;;4991784;28;19909;-79
2022/06/27 08:31:15;;;;;;;;;;;;;;;;;;5000054;28;19948;-78
2022/06/27 08:33:41;;;;;;;;;;;22.30;99.90;;;;;;4991905;28;20560;-79
2022/06/27 08:36:07;;;;;;;;;;;22.50;99.90;;;;;;4992346;28;19921;-79
2022/06/27 08:38:39;;;;;;;;;;;22.60;99.90;;;;;;4987223;28;19943;-79
2022/06/27 08:41:04;;;;;;;;;;;23.90;99.90;;;;;;4989907;28;20403;-79
2022/06/27 08:43:30;;;;;;;;;;;24.30;99.90;;;;;;4987787;28;19906;-78
2022/06/27 08:45:57;;;;;;;;;;;;;;;;;;4982919;28;19922;-78
2022/06/27 08:48:23;;;;;;;;;;;24.40;99.90;;;;;;4995464;28;19910;-79
2022/06/27 08:50:50;;;;;;;;;;;23.40;99.90;;;;;;4981578;28;20350;-80
2022/06/27 08:53:17;;;;;;;;;;;24.30;99.90;;;;;;4992013;28;20112;-80
2022/06/27 08:55:43;;;;;;;;;;;;;;;;;;4987807;28;19932;-80
2022/06/27 08:58:11;;;;;;;;;;;23.40;99.90;;;;;;4988539;28;20369;-81
2022/06/27 09:00:45;;;;;;;;;;;23.40;99.90;;;;;;4992017;28;19913;-79
2022/06/27 09:03:11;;;;;;;;;;;;;;;;;;4984050;28;20293;-79
2022/06/27 09:05:37;;;;;;;;;;;23.80;99.90;;;;;;4980865;28;19988;-79
2022/06/27 09:08:04;;;;;;;;;;;22.60;99.90;;;;;;4990332;28;19917;-78
2022/06/27 09:10:30;;;;;;;;;;;22.60;99.90;;;;;;4977968;28;19926;-79
2022/06/27 09:12:57;;;;;;;;;;;23.70;99.90;;;;;;4992545;28;19918;-79
2022/06/27 09:15:27;;;;;;;;;;;22.90;99.90;;;;;;4991759;28;19932;-79
2022/06/27 09:18:02;;;;;;;;;;;22.70;99.90;;;;;;4988611;28;19985;-80
2022/06/27 09:20:47;;;;;;;;;;;23.20;99.90;;;;;;4977887;28;19918;-79
2022/06/27 09:23:13;;;;;;;;;;;;;;;;;;4986233;28;20358;-80
2022/06/27 09:25:38;;;;;;;;;;;;;;;;;;4985831;28;20390;-79
2022/06/27 09:28:04;;;;;;;;;;;;;;;;;;4980421;28;20001;-80
2022/06/27 09:30:31;;;;;;;;;;;22.00;99.90;;;;;;4995109;28;20293;-79
2022/06/27 09:32:58;;;;;;;;;;;;;;;;;;4982330;28;19914;-80
2022/06/27 09:35:24;;;;;;;;;;;21.70;99.90;;;;;;4986470;28;19918;-79
2022/06/27 09:37:51;;;;;;;;;;;21.60;99.90;;;;;;4995768;28;20008;-78
2022/06/27 09:40:16;;;;;;;;;;;21.60;99.90;;;;;;4986874;28;19913;-79
2022/06/27 09:42:43;;;;;;;;;;;21.60;99.90;;;;;;4988134;28;19914;-78
2022/06/27 09:45:09;;;;;;;;;;;;;;;;;;4987402;28;20402;-78
2022/06/27 09:47:35;;;;;;;;;;;21.80;99.90;;;;;;4994699;28;19918;-80
2022/06/27 09:50:01;;;;;;;;;;;21.80;99.90;;;;;;4983040;28;19933;-80
2022/06/27 09:52:26;;;;;;;;;;;;;;;;;;4992029;28;19917;-78
2022/06/27 09:54:53;;;;;;;;;;;22.30;99.90;;;;;;4987567;28;19910;-79
2022/06/27 09:57:19;;;;;;;;;;;22.90;99.90;;;;;;4991234;28;19910;-78
2022/06/27 09:59:47;;;;;;;;;;;23.30;99.90;;;;;;4981416;28;20449;-79
2022/06/27 10:02:16;;;;;;;;;;;23.20;99.90;;;;;;4991446;28;20333;-79
2022/06/27 10:04:43;;;;;;;;;;;24.70;99.90;;;;;;4984935;28;19910;-79
2022/06/27 10:07:09;;;;;;;;;;;24.30;99.90;;;;;;5000673;28;19913;-81
2022/06/27 10:09:38;;;;;;;;;;;24.70;99.90;;;;;;4987101;28;19921;-78
2022/06/27 10:12:04;;;;;;;;;;;;;;;;;;4982664;28;19910;-79
2022/06/27 10:14:32;;;;;;;;;;;23.90;99.90;;;;;;4985831;28;19916;-79
2022/06/27 10:16:58;;;;;;;;;;;23.10;99.90;;;;;;4989258;28;19917;-79
2022/06/27 10:19:28;;;;;;;;;;;22.60;99.90;;;;;;4989634;28;19914;-79
2022/06/27 10:21:53;;;;;;;;;;;;;;;;;;4997101;28;20354;-77
2022/06/27 10:24:21;;;;;;;;;;;;;;;;;;4986273;28;19913;-78
2022/06/27 10:26:47;;;;;;;;;;;23.30;99.90;;;;;;4985785;28;19924;-79
2022/06/27 10:29:33;;;;;;;;;;;23.30;99.90;;;;;;4984210;28;19910;-79
2022/06/27 10:31:59;;;;;;;;;;;24.00;99.90;;;;;;4986929;28;19909;-79
2022/06/27 10:34:37;;;;;;;;;;;23.40;99.90;;;;;;4982928;28;19917;-79
2022/06/27 10:37:21;;;;;;;;;;;24.30;99.90;;;;;;4987273;28;19913;-78
2022/06/27 10:39:49;;;;;;;;;;;24.00;99.90;;;;;;4994014;28;19920;-79
2022/06/27 10:42:33;;;;;;;;;;;25.30;99.90;;;;;;4986417;28;19921;-79
2022/06/27 10:44:59;;;;;;;;;;;;;;;;;;4995616;28;19913;-78
2022/06/27 10:47:31;;;;;;;;;;;25.10;99.90;;;;;;4989660;28;20001;-80
2022/06/27 10:50:09;;;;;;;;;;;20.50;99.90;;;;;;4990990;28;20421;-79
2022/06/27 10:52:35;;;;;;;;;;;25.20;99.90;;;;;;4990127;28;19910;-80
2022/06/27 10:55:01;;;;;;;;;;;;;;;;;;4986550;28;19972;-79
2022/06/27 10:57:36;;;;;;;;;;;25.30;99.90;;;;;;4985987;28;20305;-80
2022/06/27 11:00:04;;;;;;;;;;;;;;;;;;4990390;28;19921;-82
2022/06/27 11:02:31;;;;;;;;;;;25.10;99.90;;;;;;4985003;28;20775;-79
2022/06/27 11:04:57;;;;;;;;;;;25.30;99.90;;;;;;4987158;28;20361;-79
2022/06/27 11:07:22;;;;;;;;;;;22.40;99.90;;;;;;4987747;28;20040;-78
2022/06/27 11:09:48;;;;;;;;;;;25.20;99.90;;;;;;4988860;28;19936;-80
2022/06/27 11:12:18;;;;;;;;;;;24.90;99.90;;;;;;4989943;28;19913;-80
2022/06/27 11:14:51;;;;;;;;;;;23.60;99.90;;;;;;4982452;28;19910;-79
2022/06/27 11:17:17;;;;;;;;;;;;;;;;;;4988456;28;20535;-79
2022/06/27 11:22:27;;;;;;;;;;;24.70;99.90;;;;;;4987576;28;20142;-79
2022/06/27 11:24:52;;;;;;;;;;;24.10;99.90;;;;;;4991780;28;19910;-80
2022/06/27 11:27:18;;;;;;;;;;;24.70;99.90;;;;;;4990597;28;19909;-78
2022/06/27 11:32:33;;;;;;;;;;;24.90;99.90;;;;;;5002155;28;19920;-78
2022/06/27 11:34:58;;;;;;;;;;;25.40;99.90;;;;;;5003369;28;19914;-77
2022/06/27 11:37:24;;;;;;;;;;;24.80;99.90;;;;;;5002970;28;19910;-77
2022/06/27 11:40:00;;;;;;;;;;;25.70;99.90;;;;;;5008575;28;19917;-77
2022/06/27 11:42:29;;;;;;;;;;;25.70;99.90;;;;;;5004310;28;19923;-77
2022/06/27 11:45:08;;;;;;;;;;;25.60;99.90;;;;;;4995097;28;20012;-82
2022/06/27 11:47:34;;;;;;;;;;;25.60;99.90;;;;;;4983631;28;20012;-78
2022/06/27 11:50:07;;;;;;;;;;;25.40;99.90;;;;;;4982519;28;19918;-80
2022/06/27 11:52:36;;;;;;;;;;;24.60;99.90;;;;;;4984080;28;20402;-78
2022/06/27 11:55:09;;;;;;;;;;;25.60;99.90;;;;;;4990461;28;19993;-78
2022/06/27 11:57:34;;;;;;;;;;;25.30;99.90;;;;;;4988612;28;19917;-79
2022/06/27 12:00:01;;;;;;;;;;;24.60;99.90;;;;;;4984547;28;19917;-79
2022/06/27 12:02:27;;;;;;;;;;;24.90;99.90;;;;;;4979894;28;20559;-80
2022/06/27 12:05:05;;;;;;;;;;;24.60;99.90;;;;;;4992638;28;19917;-80
2022/06/27 12:07:31;;;;;;;;;;;24.00;99.90;;;;;;4985424;28;19910;-79
2022/06/27 12:09:57;;;;;;;;;;;24.70;99.90;;;;;;4986828;28;19925;-80
2022/06/27 12:12:25;;;;;;;;;;;23.80;99.90;;;;;;4985386;28;21285;-77
2022/06/27 12:14:52;;;;;;;;;;;24.50;99.90;;;;;;4981787;28;19918;-78
2022/06/27 12:17:18;;;;;;;;;;;24.00;99.90;;;;;;4986940;28;19913;-77
2022/06/27 12:19:43;;;;;;;;;;;24.50;99.90;;;;;;4989004;28;19914;-81
2022/06/27 12:22:12;;;;;;;;;;;24.10;99.90;;;;;;4985731;28;19917;-78
2022/06/27 12:24:38;;;;;;;;;;;24.10;99.90;;;;;;4987710;28;20526;-78
2022/06/27 12:27:04;;;;;;;;;;;24.30;99.90;;;;;;4986023;28;19917;-79
2022/06/27 12:29:30;;;;;;;;;;;23.60;99.90;;;;;;4978609;28;20294;-79
2022/06/27 12:31:56;;;;;;;;;;;;;;;;;;4989872;28;20651;-79
2022/06/27 12:34:22;;;;;;;;;;;23.00;99.90;;;;;;4985884;28;19981;-79
2022/06/27 12:36:48;;;;;;;;;;;24.10;99.90;;;;;;4977430;28;20349;-78
2022/06/27 12:39:13;;;;;;;;;;;23.30;99.90;;;;;;4982925;28;20543;-77
2022/06/27 12:41:39;;;;;;;;;;;23.80;99.90;;;;;;4982621;28;20370;-76
2022/06/27 12:44:04;;;;;;;;;;;23.70;99.90;;;;;;4978549;28;19922;-77
2022/06/27 12:46:31;;;;;;;;;;;22.70;99.90;;;;;;4975329;28;19913;-76
2022/06/27 12:48:56;;;;;;;;;;;22.80;99.90;;;;;;4988596;28;19989;-77
2022/06/27 12:51:23;;;;;;;;;;;22.50;99.90;;;;;;4978941;28;20008;-76
2022/06/27 12:53:49;;;;;;;;;;;23.10;99.90;;;;;;4987199;28;20259;-76
2022/06/27 12:56:14;;;;;;;;;;;22.50;99.90;;;;;;4983285;28;19924;-78
2022/06/27 12:58:40;;;;;;;;;;;23.30;99.90;;;;;;4982942;28;19914;-77
2022/06/27 13:01:05;;;;;;;;;;;;;;;;;;4979127;28;20009;-78
2022/06/27 13:03:31;;;;;;;;;;;23.60;99.90;;;;;;4984371;28;20246;-77
2022/06/27 13:05:57;;;;;;;;;;;22.70;99.90;;;;;;4984838;28;19949;-77
2022/06/27 13:08:23;;;;;;;;;;;23.80;99.90;;;;;;4978959;28;19925;-77
2022/06/27 13:10:48;;;;;;;;;;;23.00;99.90;;;;;;4988798;28;19918;-77
2022/06/27 13:13:14;;;;;;;;;;;23.10;99.90;;;;;;4988235;28;19916;-76
2022/06/27 13:15:40;;;;;;;;;;;24.60;99.90;;;;;;4983691;28;19995;-77
2022/06/27 13:18:06;;;;;;;;;;;23.70;99.90;;;;;;4989679;28;19910;-77
2022/06/27 13:20:32;;;;;;;;;;;24.70;99.90;;;;;;4978004;28;20039;-79
2022/06/27 13:22:58;;;;;;;;;;;24.50;99.90;;;;;;4985522;28;20269;-79
2022/06/27 13:25:24;;;;;;;;;;;24.00;99.90;;;;;;4984303;28;19958;-79
2022/06/27 13:27:49;;;;;;;;;;;23.60;99.90;;;;;;4985640;28;19964;-77
2022/06/27 13:30:15;;;;;;;;;;;24.30;99.90;;;;;;4981220;28;20538;-77
2022/06/27 13:32:40;;;;;;;;;;;24.90;99.90;;;;;;4990127;28;19909;-78
2022/06/27 13:35:06;;;;;;;;;;;24.10;99.90;;;;;;4990119;28;19917;-78
2022/06/27 13:37:32;;;;;;;;;;;23.80;99.90;;;;;;4984153;28;19990;-78
2022/06/27 13:39:57;;;;;;;;;;;24.80;99.90;;;;;;4988461;28;19914;-78
2022/06/27 13:42:23;;;;;;;;;;;24.70;99.90;;;;;;4988518;28;19976;-78
2022/06/27 13:44:48;;;;;;;;;;;24.80;99.90;;;;;;4984721;28;19918;-78
2022/06/27 13:47:14;;;;;;;;;;;25.30;99.90;;;;;;4989603;28;19921;-78
2022/06/27 13:49:40;;;;;;;;;;;25.40;99.90;;;;;;4984649;28;20845;-77
2022/06/27 13:52:05;;;;;;;;;;;25.70;99.90;;;;;;4986260;28;19921;-79
2022/06/27 13:54:31;;;;;;;;;;;25.70;99.90;;;;;;4982458;28;19921;-79
2022/06/27 13:56:56;;;;;;;;;;;25.40;99.90;;;;;;4979036;28;19924;-77
2022/06/27 13:59:22;;;;;;;;;;;25.50;99.90;;;;;;4982313;28;19965;-76
2022/06/27 14:01:47;;;;;;;;;;;25.50;99.90;;;;;;4988343;28;19920;-78
2022/06/27 14:04:13;;;;;;;;;;;25.70;99.90;;;;;;4977383;28;19917;-81
2022/06/27 14:09:23;;;;;;;;;;;26.10;99.20;;;;;;4985154;28;19916;-80
2022/06/27 14:11:49;;;;;;;;;;;26.20;98.80;;;;;;4984433;28;19910;-79
2022/06/27 14:14:14;;;;;;;;;;;26.20;99.00;;;;;;4984702;28;19918;-82
2022/06/27 14:16:40;;;;;;;;;;;26.00;98.80;;;;;;4986554;28;19988;-79
2022/06/27 14:19:05;;;;;;;;;;;26.00;99.20;;;;;;4989351;28;19946;-80
2022/06/27 14:21:31;;;;;;;;;;;25.80;99.30;;;;;;4982999;28;20429;-83
2022/06/27 14:23:57;;;;;;;;;;;26.10;99.90;;;;;;4986349;28;19913;-81
2022/06/27 14:26:22;;;;;;;;;;;26.40;99.10;;;;;;4992814;28;19964;-82
2022/06/27 14:28:48;;;;;;;;;;;26.40;98.30;;;;;;4983087;28;19910;-80
2022/06/27 14:31:14;;;;;;;;;;;26.30;98.00;;;;;;4988261;28;19925;-79
2022/06/27 14:33:39;;;;;;;;;;;26.10;98.10;;;;;;4986848;28;19916;-81
2022/06/27 14:36:06;;;;;;;;;;;26.30;98.30;;;;;;4980467;28;19914;-83
2022/06/27 14:38:31;;;;;;;;;;;25.30;97.60;;;;;;4989910;28;19944;-82
2022/06/27 14:40:57;;;;;;;;;;;;;;;;;;4980872;28;19949;-81
2022/06/27 14:43:23;;;;;;;;;;;;;;;;;;4989405;28;19910;-81
2022/06/27 14:45:48;;;;;;;;;;;24.90;99.40;;;;;;4985381;28;20267;-83
2022/06/27 14:48:14;;;;;;;;;;;27.40;99.90;;;;;;4985545;28;19909;-83
2022/06/27 14:50:39;;;;;;;;;;;24.90;99.90;;;;;;4987013;28;20620;-80
2022/06/27 14:53:05;;;;;;;;;;;24.90;99.90;;;;;;4988560;28;19985;-81
2022/06/27 14:55:30;;;;;;;;;;;24.00;99.90;;;;;;4987596;28;19972;-81